createdAt,value
2022-07-30T00:01:21.270Z,17.37
2022-07-30T00:03:48.190Z,17.31
2022-07-30T00:06:14.987Z,17.27
2022-07-30T00:08:41.727Z,17.25
2022-07-30T00:11:09.449Z,17.25
2022-07-30T00:13:36.225Z,17.19
2022-07-30T00:16:03.310Z,17.16
2022-07-30T00:18:30.066Z,17.11
2022-07-30T00:20:57.235Z,17.07
2022-07-30T00:23:24.129Z,17.02
2022-07-30T00:25:50.887Z,16.96
2022-07-30T00:28:17.647Z,16.94
2022-07-30T00:30:44.459Z,16.90
2022-07-30T00:33:11.319Z,16.88
2022-07-30T00:35:39.720Z,16.88
2022-07-30T00:38:06.585Z,16.87
2022-07-30T00:40:33.405Z,16.87
2022-07-30T00:43:00.260Z,16.84
2022-07-30T00:45:27.762Z,16.81
2022-07-30T00:47:54.657Z,16.76
2022-07-30T00:50:21.876Z,16.72
2022-07-30T00:52:49.157Z,16.72
2022-07-30T00:55:16.250Z,16.70
2022-07-30T00:57:44.441Z,16.68
2022-07-30T01:00:16.227Z,16.66
2022-07-30T01:02:53.571Z,16.62
2022-07-30T01:05:20.588Z,16.63
2022-07-30T01:07:47.602Z,16.62
2022-07-30T01:10:16.321Z,16.62
2022-07-30T01:12:45.621Z,16.62
2022-07-30T01:15:12.852Z,16.61
2022-07-30T01:17:40.669Z,16.56
2022-07-30T01:20:16.170Z,16.48
2022-07-30T01:22:59.804Z,16.45
2022-07-30T01:25:51.434Z,16.38
2022-07-30T01:28:25.936Z,16.33
2022-07-30T01:30:54.570Z,16.28
2022-07-30T01:33:24.090Z,16.24
2022-07-30T01:35:53.494Z,16.28
2022-07-30T01:38:23.678Z,16.29
2022-07-30T01:40:55.959Z,16.24
2022-07-30T01:43:25.849Z,16.19
2022-07-30T01:45:55.320Z,16.14
2022-07-30T01:48:25.423Z,16.08
2022-07-30T01:50:58.274Z,16.03
2022-07-30T01:53:29.912Z,15.95
2022-07-30T01:56:00.231Z,15.91
2022-07-30T01:58:31.719Z,15.92
2022-07-30T02:01:07.306Z,15.91
2022-07-30T02:03:35.599Z,15.89
2022-07-30T02:06:13.500Z,15.86
2022-07-30T02:08:52.447Z,15.85
2022-07-30T02:11:38.998Z,15.83
2022-07-30T02:14:21.842Z,15.79
2022-07-30T02:16:59.178Z,15.74
2022-07-30T02:19:41.614Z,15.70
2022-07-30T02:22:15.926Z,15.66
2022-07-30T02:24:44.396Z,15.62
2022-07-30T02:27:26.520Z,15.61
2022-07-30T02:29:57.803Z,15.59
2022-07-30T02:32:30.625Z,15.55
2022-07-30T02:35:05.273Z,15.53
2022-07-30T02:37:42.961Z,15.50
2022-07-30T02:40:19.467Z,15.50
2022-07-30T02:42:51.422Z,15.50
2022-07-30T02:45:24.695Z,15.47
2022-07-30T02:47:57.605Z,15.46
2022-07-30T02:50:26.231Z,15.43
2022-07-30T02:52:56.492Z,15.36
2022-07-30T02:55:27.014Z,15.34
2022-07-30T02:57:56.448Z,15.29
2022-07-30T03:00:25.817Z,15.26
2022-07-30T03:02:56.975Z,15.26
2022-07-30T03:05:25.794Z,15.26
2022-07-30T03:07:57.996Z,15.20
2022-07-30T03:10:27.701Z,15.17
2022-07-30T03:12:56.969Z,15.15
2022-07-30T03:15:24.413Z,15.13
2022-07-30T03:17:55.572Z,15.11
2022-07-30T03:20:29.592Z,15.10
2022-07-30T03:22:59.948Z,15.10
2022-07-30T03:25:31.960Z,15.11
2022-07-30T03:28:04.032Z,15.08
2022-07-30T03:30:34.525Z,15.08
2022-07-30T03:33:02.534Z,15.00
2022-07-30T03:35:31.516Z,14.97
2022-07-30T03:38:01.787Z,14.94
2022-07-30T03:40:30.275Z,14.88
2022-07-30T03:42:57.869Z,14.85
2022-07-30T03:45:26.469Z,14.86
2022-07-30T03:47:59.290Z,14.81
2022-07-30T03:50:27.915Z,14.79
2022-07-30T03:52:55.599Z,14.76
2022-07-30T03:55:23.355Z,14.73
2022-07-30T03:57:51.122Z,14.70
2022-07-30T04:00:22.637Z,14.70
2022-07-30T04:02:53.336Z,14.67
2022-07-30T04:05:41.234Z,14.64
2022-07-30T04:08:09.543Z,14.65
2022-07-30T04:10:38.126Z,14.62
2022-07-30T04:13:09.155Z,14.62
2022-07-30T04:16:35.031Z,14.61
2022-07-30T04:18:47.588Z,14.63
2022-07-30T04:21:18.038Z,14.63
2022-07-30T04:24:02.315Z,14.65
2022-07-30T04:26:35.630Z,14.66
2022-07-30T04:29:07.547Z,14.64
2022-07-30T04:31:40.046Z,14.65
2022-07-30T04:34:34.711Z,14.85
2022-07-30T04:37:04.425Z,15.09
2022-07-30T04:39:31.579Z,15.38
2022-07-30T04:41:58.417Z,15.68
2022-07-30T04:44:34.402Z,15.97
2022-07-30T04:47:27.237Z,16.31
2022-07-30T04:50:14.168Z,16.62
2022-07-30T04:52:44.209Z,16.68
2022-07-30T04:55:15.105Z,16.43
2022-07-30T04:57:47.156Z,16.13
2022-07-30T05:00:16.545Z,15.87
2022-07-30T05:02:46.447Z,15.69
2022-07-30T05:05:16.369Z,15.54
2022-07-30T05:07:46.541Z,15.46
2022-07-30T05:10:14.379Z,15.41
2022-07-30T05:12:42.287Z,15.36
2022-07-30T05:15:11.204Z,15.31
2022-07-30T05:17:39.185Z,15.33
2022-07-30T05:20:09.712Z,15.36
2022-07-30T05:23:09.434Z,15.37
2022-07-30T05:25:40.609Z,15.38
2022-07-30T05:28:27.379Z,15.40
2022-07-30T05:30:56.416Z,15.45
2022-07-30T05:33:41.368Z,15.49
2022-07-30T05:36:14.196Z,15.55
2022-07-30T05:38:43.868Z,15.60
2022-07-30T05:41:31.848Z,15.64
2022-07-30T05:44:23.881Z,15.71
2022-07-30T05:46:52.113Z,15.73
2022-07-30T05:49:19.956Z,15.76
2022-07-30T05:51:47.004Z,15.82
2022-07-30T05:54:13.943Z,15.85
2022-07-30T05:57:06.922Z,15.91
2022-07-30T05:59:38.772Z,15.97
2022-07-30T06:02:08.495Z,16.06
2022-07-30T06:04:50.129Z,16.13
2022-07-30T06:07:17.739Z,16.22
2022-07-30T06:09:44.683Z,16.31
2022-07-30T06:12:11.773Z,16.43
2022-07-30T06:14:40.556Z,16.52
2022-07-30T06:17:10.311Z,16.62
2022-07-30T06:19:55.620Z,16.72
2022-07-30T06:22:26.250Z,16.80
2022-07-30T06:24:54.734Z,16.84
2022-07-30T06:27:30.923Z,16.91
2022-07-30T06:29:58.456Z,17.10
2022-07-30T06:32:26.394Z,17.27
2022-07-30T06:35:02.454Z,17.35
2022-07-30T06:38:01.786Z,17.38
2022-07-30T06:40:18.895Z,17.41
2022-07-30T06:43:04.233Z,17.47
2022-07-30T06:45:50.128Z,17.58
2022-07-30T06:48:23.545Z,17.65
2022-07-30T06:50:51.790Z,17.75
2022-07-30T06:53:19.505Z,17.95
2022-07-30T06:56:21.444Z,18.17
2022-07-30T06:58:55.613Z,18.26
2022-07-30T07:01:49.484Z,18.39
2022-07-30T07:04:16.276Z,18.58
2022-07-30T07:06:43.178Z,18.78
2022-07-30T07:09:13.294Z,18.97
2022-07-30T07:11:50.105Z,19.11
2022-07-30T07:14:18.857Z,19.13
2022-07-30T07:16:48.869Z,19.17
2022-07-30T07:19:59.782Z,20.26
2022-07-30T07:22:30.833Z,21.71
2022-07-30T07:24:57.655Z,22.43
2022-07-30T07:27:28.301Z,22.64
2022-07-30T07:30:01.294Z,22.07
2022-07-30T07:32:34.277Z,21.44
2022-07-30T07:35:02.604Z,21.52
2022-07-30T07:37:30.358Z,21.62
2022-07-30T07:39:57.490Z,21.33
2022-07-30T07:42:24.453Z,21.98
2022-07-30T07:44:52.884Z,22.87
2022-07-30T07:47:19.858Z,23.67
2022-07-30T07:50:02.718Z,24.13
2022-07-30T07:52:30.255Z,24.16
2022-07-30T07:54:56.984Z,23.83
2022-07-30T07:57:24.510Z,23.74
2022-07-30T07:59:54.330Z,24.19
2022-07-30T08:02:26.690Z,24.86
2022-07-30T08:05:06.045Z,25.41
2022-07-30T08:07:43.692Z,25.99
2022-07-30T08:10:29.081Z,26.41
2022-07-30T08:13:48.987Z,27.05
2022-07-30T08:16:37.865Z,27.19
2022-07-30T08:19:20.757Z,26.98
2022-07-30T08:21:59.696Z,27.16
2022-07-30T08:24:30.355Z,27.11
2022-07-30T08:26:57.397Z,27.19
2022-07-30T08:29:24.368Z,27.04
2022-07-30T08:31:51.331Z,26.97
2022-07-30T08:34:25.652Z,26.78
2022-07-30T08:36:54.295Z,26.53
2022-07-30T08:39:21.417Z,26.12
2022-07-30T08:41:49.081Z,25.81
2022-07-30T08:44:19.381Z,25.45
2022-07-30T08:46:56.145Z,25.29
2022-07-30T08:49:34.600Z,25.17
2022-07-30T08:52:02.917Z,24.93
2022-07-30T08:54:43.458Z,24.69
2022-07-30T08:57:12.923Z,24.41
2022-07-30T08:59:59.486Z,24.22
2022-07-30T09:02:32.138Z,23.93
2022-07-30T09:05:06.361Z,23.76
2022-07-30T09:07:34.782Z,23.66
2022-07-30T09:10:08.307Z,23.55
2022-07-30T09:12:42.640Z,23.58
2022-07-30T09:15:15.381Z,23.82
2022-07-30T09:17:51.396Z,24.07
2022-07-30T09:20:26.249Z,24.14
2022-07-30T09:23:00.570Z,23.97
2022-07-30T09:25:49.341Z,23.76
2022-07-30T09:28:35.010Z,23.83
2022-07-30T09:31:14.330Z,23.93
2022-07-30T09:33:59.634Z,23.79
2022-07-30T09:36:44.831Z,23.50
2022-07-30T09:39:58.891Z,23.30
2022-07-30T09:42:45.297Z,23.14
2022-07-30T09:45:15.672Z,23.06
2022-07-30T09:47:48.451Z,23.05
2022-07-30T09:53:09.866Z,23.05
2022-07-30T09:55:42.826Z,22.98
2022-07-30T09:58:12.909Z,23.04
2022-07-30T10:00:47.027Z,23.28
2022-07-30T10:03:43.138Z,23.52
2022-07-30T10:06:38.203Z,23.89
2022-07-30T10:09:37.245Z,24.24
2022-07-30T10:12:10.650Z,24.48
2022-07-30T10:14:46.511Z,24.67
2022-07-30T10:17:17.325Z,24.86
2022-07-30T10:20:08.757Z,25.07
2022-07-30T10:22:55.086Z,25.21
2022-07-30T10:25:49.546Z,25.17
2022-07-30T10:28:40.598Z,25.02
2022-07-30T10:31:08.360Z,24.91
2022-07-30T10:33:55.371Z,24.85
2022-07-30T10:36:24.520Z,24.85
2022-07-30T10:38:54.175Z,24.96
2022-07-30T10:41:47.459Z,25.00
2022-07-30T10:44:50.580Z,25.01
2022-07-30T10:47:19.313Z,25.11
2022-07-30T10:50:16.095Z,25.21
2022-07-30T10:52:58.464Z,25.07
2022-07-30T10:55:38.488Z,24.96
2022-07-30T10:58:15.865Z,25.01
2022-07-30T11:00:52.658Z,25.10
2022-07-30T11:03:23.438Z,25.07
2022-07-30T11:06:15.982Z,25.11
2022-07-30T11:08:45.385Z,25.15
2022-07-30T11:11:20.813Z,25.34
2022-07-30T11:14:07.726Z,25.57
2022-07-30T11:16:34.859Z,25.60
2022-07-30T11:19:55.190Z,25.67
2022-07-30T11:22:28.160Z,25.91
2022-07-30T11:24:55.565Z,26.08
2022-07-30T11:27:48.640Z,26.32
2022-07-30T11:30:18.828Z,26.50
2022-07-30T11:32:51.531Z,26.58
2022-07-30T11:35:34.653Z,26.87
2022-07-30T11:38:19.025Z,27.33
2022-07-30T11:40:48.765Z,27.60
2022-07-30T11:43:36.205Z,27.78
2022-07-30T11:46:29.634Z,27.82
2022-07-30T11:49:05.019Z,27.89
2022-07-30T11:51:46.777Z,27.98
2022-07-30T11:54:14.202Z,27.94
2022-07-30T11:56:55.605Z,28.03
2022-07-30T11:59:22.718Z,28.30
2022-07-30T12:02:01.531Z,28.63
2022-07-30T12:04:28.715Z,28.97
2022-07-30T12:06:55.461Z,29.14
2022-07-30T12:09:29.873Z,29.39
2022-07-30T12:11:57.592Z,29.81
2022-07-30T12:14:25.246Z,30.22
2022-07-30T12:16:54.254Z,30.60
2022-07-30T12:19:21.673Z,30.92
2022-07-30T12:21:53.065Z,30.84
2022-07-30T12:24:26.770Z,30.75
2022-07-30T12:27:07.932Z,30.43
2022-07-30T12:29:35.850Z,30.12
2022-07-30T12:32:03.128Z,29.79
2022-07-30T12:34:29.925Z,29.51
2022-07-30T12:37:08.691Z,29.32
2022-07-30T12:39:35.784Z,29.09
2022-07-30T12:42:03.451Z,28.84
2022-07-30T12:44:42.150Z,28.69
2022-07-30T12:47:38.643Z,28.60
2022-07-30T12:50:16.872Z,28.63
2022-07-30T12:52:51.366Z,28.67
2022-07-30T12:55:27.894Z,28.63
2022-07-30T12:58:08.701Z,28.59
2022-07-30T13:00:54.873Z,28.48
2022-07-30T13:03:24.940Z,28.35
2022-07-30T13:05:55.602Z,27.89
2022-07-30T13:08:51.306Z,27.49
2022-07-30T13:11:21.141Z,27.27
2022-07-30T13:13:49.145Z,27.23
2022-07-30T13:16:16.727Z,27.26
2022-07-30T13:18:43.601Z,27.28
2022-07-30T13:21:11.322Z,27.37
2022-07-30T13:23:41.515Z,27.28
2022-07-30T13:26:09.934Z,27.32
2022-07-30T13:28:36.864Z,27.35
2022-07-30T13:31:04.253Z,27.46
2022-07-30T13:33:31.562Z,27.70
2022-07-30T13:35:59.136Z,28.06
2022-07-30T13:38:26.567Z,28.37
2022-07-30T13:40:56.047Z,28.82
2022-07-30T13:43:24.701Z,29.08
2022-07-30T13:45:53.086Z,29.42
2022-07-30T13:48:20.495Z,29.80
2022-07-30T13:50:47.278Z,30.26
2022-07-30T13:53:14.239Z,30.50
2022-07-30T13:55:42.492Z,30.66
2022-07-30T13:58:09.995Z,30.91
2022-07-30T14:00:37.374Z,31.32
2022-07-30T14:03:07.933Z,31.55
2022-07-30T14:05:42.023Z,31.58
2022-07-30T14:08:12.097Z,31.56
2022-07-30T14:10:40.508Z,31.40
2022-07-30T14:13:10.367Z,31.28
2022-07-30T14:15:41.177Z,31.02
2022-07-30T14:18:07.981Z,30.76
2022-07-30T14:20:35.128Z,30.46
2022-07-30T14:23:05.942Z,29.76
2022-07-30T14:25:32.861Z,29.18
2022-07-30T14:27:59.645Z,28.89
2022-07-30T14:30:26.746Z,28.73
2022-07-30T14:32:59.202Z,28.67
2022-07-30T14:35:28.593Z,28.64
2022-07-30T14:37:55.379Z,28.39
2022-07-30T14:40:22.185Z,28.30
2022-07-30T14:42:48.917Z,28.22
2022-07-30T14:45:15.822Z,28.10
2022-07-30T14:47:43.062Z,28.00
2022-07-30T14:50:09.974Z,27.88
2022-07-30T14:52:38.740Z,28.04
2022-07-30T14:55:10.065Z,28.40
2022-07-30T14:57:37.573Z,28.51
2022-07-30T15:00:11.882Z,28.47
2022-07-30T15:02:40.771Z,28.53
2022-07-30T15:05:09.128Z,28.74
2022-07-30T15:07:35.969Z,28.87
2022-07-30T15:10:04.458Z,28.93
2022-07-30T15:12:31.213Z,28.94
2022-07-30T15:14:57.979Z,28.89
2022-07-30T15:17:25.145Z,28.87
2022-07-30T15:19:52.251Z,28.77
2022-07-30T15:22:20.308Z,28.80
2022-07-30T15:24:47.285Z,28.86
2022-07-30T15:27:14.461Z,28.95
2022-07-30T15:29:41.237Z,29.13
2022-07-30T15:32:08.010Z,29.30
2022-07-30T15:34:34.983Z,29.29
2022-07-30T15:37:05.594Z,29.17
2022-07-30T15:39:33.760Z,29.13
2022-07-30T15:42:02.612Z,29.16
2022-07-30T15:44:30.208Z,29.20
2022-07-30T15:46:57.436Z,29.12
2022-07-30T15:49:24.517Z,29.23
2022-07-30T15:51:51.884Z,29.45
2022-07-30T15:54:23.206Z,29.60
2022-07-30T15:56:53.960Z,29.68
2022-07-30T15:59:22.049Z,29.67
2022-07-30T16:01:49.228Z,29.55
2022-07-30T16:04:19.522Z,29.45
2022-07-30T16:06:48.565Z,29.26
2022-07-30T16:09:16.627Z,29.08
2022-07-30T16:11:43.666Z,28.90
2022-07-30T16:14:11.068Z,28.76
2022-07-30T16:16:38.196Z,28.73
2022-07-30T16:19:05.038Z,28.63
2022-07-30T16:21:31.817Z,28.53
2022-07-30T16:23:59.105Z,28.44
2022-07-30T16:26:26.290Z,28.38
2022-07-30T16:28:53.468Z,28.40
2022-07-30T16:31:20.302Z,28.33
2022-07-30T16:33:47.350Z,28.14
2022-07-30T16:36:14.667Z,27.96
2022-07-30T16:38:41.578Z,27.84
2022-07-30T16:41:13.353Z,27.69
2022-07-30T16:43:41.024Z,27.61
2022-07-30T16:46:07.851Z,27.53
2022-07-30T16:48:34.759Z,27.48
2022-07-30T16:51:01.736Z,27.38
2022-07-30T16:53:28.666Z,27.27
2022-07-30T16:55:56.971Z,27.21
2022-07-30T16:58:30.726Z,27.16
2022-07-30T17:00:58.581Z,27.06
2022-07-30T17:03:25.770Z,27.03
2022-07-30T17:05:53.785Z,26.98
2022-07-30T17:08:24.853Z,26.95
2022-07-30T17:10:53.451Z,26.98
2022-07-30T17:13:21.324Z,26.97
2022-07-30T17:15:48.643Z,26.87
2022-07-30T17:18:16.159Z,26.78
2022-07-30T17:20:43.726Z,26.70
2022-07-30T17:23:10.747Z,26.69
2022-07-30T17:25:37.543Z,26.62
2022-07-30T17:28:04.853Z,26.60
2022-07-30T17:30:31.734Z,26.60
2022-07-30T17:32:58.832Z,26.53
2022-07-30T17:35:26.277Z,26.46
2022-07-30T17:37:53.292Z,26.41
2022-07-30T17:40:29.820Z,26.36
2022-07-30T17:43:07.834Z,26.29
2022-07-30T17:45:36.548Z,26.19
2022-07-30T17:48:05.282Z,26.17
2022-07-30T17:50:33.827Z,26.11
2022-07-30T17:53:03.920Z,26.05
2022-07-30T17:55:34.944Z,25.99
2022-07-30T17:58:04.245Z,25.90
2022-07-30T18:00:31.354Z,25.79
2022-07-30T18:02:58.119Z,25.75
2022-07-30T18:05:25.048Z,25.74
2022-07-30T18:07:51.980Z,25.73
2022-07-30T18:10:18.759Z,25.68
2022-07-30T18:12:48.826Z,25.63
2022-07-30T18:15:18.097Z,25.57
2022-07-30T18:17:45.250Z,25.48
2022-07-30T18:20:12.293Z,25.41
2022-07-30T18:22:40.408Z,25.36
2022-07-30T18:25:08.222Z,25.31
2022-07-30T18:27:47.427Z,25.29
2022-07-30T18:30:15.106Z,25.25
2022-07-30T18:32:42.020Z,25.16
2022-07-30T18:35:14.082Z,25.10
2022-07-30T18:37:43.494Z,25.00
2022-07-30T18:40:13.244Z,24.85
2022-07-30T18:42:40.270Z,24.73
2022-07-30T18:45:07.785Z,24.68
2022-07-30T18:47:34.700Z,24.65
2022-07-30T18:50:01.988Z,24.62
2022-07-30T18:52:28.802Z,24.58
2022-07-30T18:54:55.696Z,24.50
2022-07-30T18:57:22.427Z,24.45
2022-07-30T18:59:49.778Z,24.36
2022-07-30T19:02:16.575Z,24.32
2022-07-30T19:04:43.436Z,24.28
2022-07-30T19:07:10.272Z,24.26
2022-07-30T19:09:37.384Z,24.24
2022-07-30T19:12:05.634Z,24.24
2022-07-30T19:14:32.656Z,24.21
2022-07-30T19:17:00.031Z,24.24
2022-07-30T19:19:27.272Z,24.21
2022-07-30T19:21:54.364Z,24.16
2022-07-30T19:24:21.466Z,24.10
2022-07-30T19:26:49.114Z,24.06
2022-07-30T19:29:16.357Z,24.02
2022-07-30T19:31:43.126Z,24.00
2022-07-30T19:34:11.112Z,23.97
2022-07-30T19:36:38.492Z,23.95
2022-07-30T19:39:07.389Z,23.90
2022-07-30T19:41:40.527Z,23.89
2022-07-30T19:44:12.090Z,23.87
2022-07-30T19:46:41.306Z,23.83
2022-07-30T19:49:09.759Z,23.80
2022-07-30T19:52:10.280Z,23.76
2022-07-30T19:54:24.881Z,23.75
2022-07-30T19:56:52.322Z,23.74
2022-07-30T19:59:19.301Z,23.72
2022-07-30T20:02:06.403Z,23.69
2022-07-30T20:04:35.343Z,23.65
2022-07-30T20:07:02.135Z,23.62
2022-07-30T20:09:31.110Z,23.59
2022-07-30T20:12:00.013Z,23.57
2022-07-30T20:14:30.182Z,23.51
2022-07-30T20:16:58.207Z,23.47
2022-07-30T20:19:29.165Z,23.43
2022-07-30T20:22:03.154Z,23.39
2022-07-30T20:24:30.019Z,23.37
2022-07-30T20:26:58.033Z,23.35
2022-07-30T20:29:24.985Z,23.34
2022-07-30T20:31:51.862Z,23.34
2022-07-30T20:34:20.753Z,23.32
2022-07-30T20:36:52.196Z,23.33
2022-07-30T20:39:21.066Z,23.30
2022-07-30T20:41:48.040Z,23.28
2022-07-30T20:44:23.076Z,23.28
2022-07-30T20:46:52.675Z,23.27
2022-07-30T20:49:24.289Z,23.26
2022-07-30T20:52:01.315Z,23.23
2022-07-30T20:54:30.177Z,23.22
2022-07-30T20:56:57.962Z,23.20
2022-07-30T20:59:26.859Z,23.22
2022-07-30T21:01:59.854Z,23.19
2022-07-30T21:04:26.750Z,23.19
2022-07-30T21:06:53.861Z,23.17
2022-07-30T21:09:20.898Z,23.16
2022-07-30T21:11:50.465Z,23.16
2022-07-30T21:14:20.090Z,23.14
2022-07-30T21:16:47.494Z,23.12
2022-07-30T21:19:18.501Z,23.09
2022-07-30T21:21:48.743Z,23.08
2022-07-30T21:24:19.291Z,23.05
2022-07-30T21:26:49.361Z,23.01
2022-07-30T21:29:17.635Z,22.97
2022-07-30T21:32:01.307Z,22.93
2022-07-30T21:34:33.650Z,22.85
2022-07-30T21:37:02.842Z,22.80
2022-07-30T21:39:29.974Z,22.74
2022-07-30T21:41:57.742Z,22.68
2022-07-30T21:44:24.753Z,22.62
2022-07-30T21:46:52.203Z,22.56
2022-07-30T21:49:18.974Z,22.50
2022-07-30T21:51:46.023Z,22.45
2022-07-30T21:54:13.895Z,22.42
2022-07-30T21:56:43.973Z,22.38
2022-07-30T21:59:10.834Z,22.35
2022-07-30T22:01:38.742Z,22.33
2022-07-30T22:04:09.242Z,22.30
2022-07-30T22:06:39.105Z,22.26
2022-07-30T22:09:19.323Z,22.26
2022-07-30T22:11:56.891Z,22.20
2022-07-30T22:14:28.910Z,22.17
2022-07-30T22:16:56.282Z,22.14
2022-07-30T22:19:23.764Z,22.09
2022-07-30T22:21:53.215Z,22.05
2022-07-30T22:24:29.873Z,22.03
2022-07-30T22:27:01.703Z,21.98
2022-07-30T22:29:41.575Z,21.95
2022-07-30T22:32:09.728Z,21.91
2022-07-30T22:34:37.848Z,21.85
2022-07-30T22:37:04.747Z,21.81
2022-07-30T22:39:50.738Z,21.78
2022-07-30T22:42:24.391Z,21.75
2022-07-30T22:44:53.241Z,21.72
2022-07-30T22:47:54.058Z,21.68
2022-07-30T22:50:09.339Z,21.62
2022-07-30T22:52:39.212Z,21.55
2022-07-30T22:55:09.025Z,21.51
2022-07-30T22:57:37.955Z,21.46
2022-07-30T23:00:12.347Z,21.42
2022-07-30T23:02:42.428Z,21.36
2022-07-30T23:05:10.885Z,21.33
2022-07-30T23:07:40.421Z,21.28
2022-07-30T23:10:18.042Z,21.27
2022-07-30T23:12:51.234Z,21.23
2022-07-30T23:15:20.049Z,21.20
2022-07-30T23:17:47.735Z,21.17
2022-07-30T23:20:22.820Z,21.12
2022-07-30T23:22:50.091Z,21.10
2022-07-30T23:25:17.495Z,21.05
2022-07-30T23:27:46.591Z,21.03
2022-07-30T23:30:14.236Z,20.98
2022-07-30T23:32:41.446Z,20.96
2022-07-30T23:35:10.021Z,20.92
2022-07-30T23:37:49.160Z,20.89
2022-07-30T23:40:18.460Z,20.87
2022-07-30T23:42:45.523Z,20.85
2022-07-30T23:45:12.446Z,20.84
2022-07-30T23:48:00.693Z,20.84
2022-07-30T23:50:26.650Z,20.86
2022-07-30T23:52:53.397Z,20.90
2022-07-30T23:55:21.197Z,20.89
2022-07-30T23:57:50.881Z,20.92
